createdAt,value
2018-09-19T00:00:23.968Z,87.34
2018-09-19T00:01:23.962Z,87.43
2018-09-19T00:02:24.059Z,87.72
2018-09-19T00:03:23.701Z,88.3
2018-09-19T00:04:23.963Z,88.1
2018-09-19T00:05:23.708Z,88.2
2018-09-19T00:06:23.984Z,88.68
2018-09-19T00:07:23.956Z,88.1
2018-09-19T00:08:23.962Z,88.39
2018-09-19T00:09:23.955Z,87.92
2018-09-19T00:10:23.961Z,87.72
2018-09-19T00:11:23.984Z,87.43
2018-09-19T00:12:24.074Z,88.39
2018-09-19T00:13:23.701Z,88.3
2018-09-19T00:14:23.973Z,88.1
2018-09-19T00:15:23.958Z,88.3
2018-09-19T00:16:23.957Z,88.1
2018-09-19T00:17:24.008Z,88.49
2018-09-19T00:18:24.012Z,89.26
2018-09-19T00:19:23.995Z,89.16
2018-09-19T00:20:24.176Z,88.78
2018-09-19T00:21:23.707Z,88.97
2018-09-19T00:22:24.077Z,89.36
2018-09-19T00:23:23.741Z,89.26
2018-09-19T00:24:23.714Z,89.07
2018-09-19T00:25:23.971Z,89.93
2018-09-19T00:26:23.718Z,90.03
2018-09-19T00:27:24.042Z,89.93
2018-09-19T00:28:23.963Z,90.31
2018-09-19T00:29:23.966Z,90.94
2018-09-19T00:30:23.978Z,91.04
2018-09-19T00:31:24.013Z,90.66
2018-09-19T00:32:24.167Z,90.27
2018-09-19T00:33:23.961Z,90.66
2018-09-19T00:34:24.036Z,90.94
2018-09-19T00:35:23.967Z,90.66
2018-09-19T00:36:23.963Z,90.46
2018-09-19T00:37:23.709Z,90.17
2018-09-19T00:38:23.707Z,89.98
2018-09-19T00:39:23.717Z,89.98
2018-09-19T00:40:23.966Z,89.93
2018-09-19T00:41:23.985Z,89.93
2018-09-19T00:42:24.023Z,90.22
2018-09-19T00:43:23.738Z,89.64
2018-09-19T00:44:23.980Z,89.16
2018-09-19T00:45:23.976Z,89.16
2018-09-19T00:46:23.712Z,89.45
2018-09-19T00:47:23.768Z,89.16
2018-09-19T00:48:23.981Z,89.16
2018-09-19T00:49:23.992Z,89.16
2018-09-19T00:50:23.982Z,89.26
2018-09-19T00:51:23.973Z,88.93
2018-09-19T00:52:23.974Z,88.39
2018-09-19T00:53:23.711Z,88.78
2018-09-19T00:54:23.992Z,88.78
2018-09-19T00:55:23.972Z,89.16
2018-09-19T00:56:23.713Z,89.16
2018-09-19T00:57:24.027Z,89.45
2018-09-19T00:58:23.759Z,89.4
2018-09-19T00:59:23.735Z,89.64
2018-09-19T01:00:23.965Z,89.4
2018-09-19T01:01:23.979Z,89.79
2018-09-19T01:02:24.092Z,90.08
2018-09-19T01:03:23.729Z,89.89
2018-09-19T01:04:23.984Z,90.08
2018-09-19T01:05:23.977Z,90.56
2018-09-19T01:06:23.717Z,90.56
2018-09-19T01:07:24.017Z,90.17
2018-09-19T01:08:23.969Z,90.27
2018-09-19T01:09:23.979Z,90.46
2018-09-19T01:10:23.971Z,90.27
2018-09-19T01:11:23.714Z,90.08
2018-09-19T01:12:23.769Z,89.98
2018-09-19T01:13:23.985Z,89.89
2018-09-19T01:14:24.003Z,89.89
2018-09-19T01:15:23.970Z,89.89
2018-09-19T01:16:23.967Z,89.98
2018-09-19T01:17:24.016Z,90.37
2018-09-19T01:18:23.967Z,90.17
2018-09-19T01:19:23.739Z,90.37
2018-09-19T01:20:23.976Z,90.17
2018-09-19T01:21:23.963Z,90.27
2018-09-19T01:22:24.009Z,90.75
2018-09-19T01:23:23.964Z,90.94
2018-09-19T01:24:23.965Z,90.94
2018-09-19T01:25:23.705Z,91.09
2018-09-19T01:26:23.709Z,90.84
2018-09-19T01:27:24.010Z,90.94
2018-09-19T01:28:23.701Z,90.84
2018-09-19T01:29:23.718Z,91.04
2018-09-19T01:30:23.710Z,90.56
2018-09-19T01:31:23.967Z,90.46
2018-09-19T01:32:24.018Z,90.27
2018-09-19T01:33:23.977Z,90.75
2018-09-19T01:34:23.979Z,90.46
2018-09-19T01:35:23.973Z,90.56
2018-09-19T01:36:23.977Z,90.46
2018-09-19T01:37:23.964Z,90.17
2018-09-19T01:38:23.965Z,90.37
2018-09-19T01:39:23.974Z,91.04
2018-09-19T01:40:23.993Z,91.04
2018-09-19T01:41:24.044Z,90.75
2018-09-19T01:42:23.753Z,90.75
2018-09-19T01:43:23.713Z,90.37
2018-09-19T01:44:23.980Z,90.66
2018-09-19T01:45:23.708Z,90.08
2018-09-19T01:46:23.711Z,89.98
2018-09-19T01:47:24.962Z,90.27
2018-09-19T01:48:23.973Z,90.56
2018-09-19T01:49:23.977Z,90.46
2018-09-19T01:50:23.975Z,90.37
2018-09-19T01:51:23.703Z,90.75
2018-09-19T01:52:23.979Z,90.75
2018-09-19T01:53:23.964Z,90.75
2018-09-19T01:54:23.713Z,90.84
2018-09-19T01:55:23.972Z,91.04
2018-09-19T01:56:23.961Z,90.9
2018-09-19T01:57:23.708Z,90.66
2018-09-19T01:58:23.968Z,90.27
2018-09-19T01:59:23.719Z,90.27
2018-09-19T02:00:23.967Z,90.56
2018-09-19T02:01:23.962Z,90.27
2018-09-19T02:02:23.710Z,90.66
2018-09-19T02:03:23.977Z,90.99
2018-09-19T02:04:23.735Z,91.66
2018-09-19T02:05:23.975Z,91.66
2018-09-19T02:06:23.969Z,91.96
2018-09-19T02:07:23.966Z,92.82
2018-09-19T02:08:23.716Z,91.76
2018-09-19T02:09:23.721Z,91.86
2018-09-19T02:10:23.965Z,91.76
2018-09-19T02:11:23.966Z,92.43
2018-09-19T02:12:23.958Z,91.96
2018-09-19T02:13:23.997Z,92.53
2018-09-19T02:14:23.970Z,92.63
2018-09-19T02:15:23.974Z,93.01
2018-09-19T02:16:23.708Z,93.39
2018-09-19T02:17:23.961Z,93.01
2018-09-19T02:18:24.011Z,93.77
2018-09-19T02:19:23.977Z,93.49
2018-09-19T02:20:23.956Z,93.49
2018-09-19T02:21:23.960Z,93.68
2018-09-19T02:22:23.962Z,94.35
2018-09-19T02:23:23.964Z,94.69
2018-09-19T02:24:23.751Z,95.26
2018-09-19T02:25:23.697Z,95.26
2018-09-19T02:26:23.963Z,96.03
2018-09-19T02:27:23.951Z,96.22
2018-09-19T02:28:24.056Z,96.42
2018-09-19T02:29:23.953Z,96.8
2018-09-19T02:30:23.702Z,96.51
2018-09-19T02:31:23.950Z,96.61
2018-09-19T02:32:23.969Z,95.94
2018-09-19T02:33:23.793Z,97.09
2018-09-19T02:34:23.964Z,97.19
2018-09-19T02:35:23.952Z,96.89
2018-09-19T02:36:23.977Z,96.7
2018-09-19T02:37:23.947Z,97.28
2018-09-19T02:38:24.807Z,97.28
2018-09-19T02:39:23.700Z,97.09
2018-09-19T02:40:23.682Z,97.28
2018-09-19T02:41:23.943Z,96.51
2018-09-19T02:42:23.958Z,96.89
2018-09-19T02:43:23.956Z,96.51
2018-09-19T02:44:23.955Z,97.09
2018-09-19T02:45:23.945Z,97.56
2018-09-19T02:46:23.940Z,97.95
2018-09-19T02:47:23.956Z,97.81
2018-09-19T02:48:24.024Z,98.48
2018-09-19T02:49:23.697Z,98.57
2018-09-19T02:50:23.670Z,98.57
2018-09-19T02:51:23.672Z,98.53
2018-09-19T02:52:23.937Z,98
2018-09-19T02:53:23.691Z,98.1
2018-09-19T02:54:23.938Z,98.1
2018-09-19T02:55:23.955Z,97.42
2018-09-19T02:56:23.934Z,97.9
2018-09-19T02:57:23.939Z,97.61
2018-09-19T02:58:23.923Z,97.42
2018-09-19T02:59:23.977Z,97.9
2018-09-19T03:00:23.939Z,97.33
2018-09-19T03:01:23.661Z,98.1
2018-09-19T03:02:23.913Z,97.9
2018-09-19T03:03:23.911Z,97.9
2018-09-19T03:04:23.906Z,97.81
2018-09-19T03:05:23.945Z,98.1
2018-09-19T03:06:23.648Z,97.04
2018-09-19T03:07:23.652Z,97.81
2018-09-19T03:08:23.911Z,98.1
2018-09-19T03:09:23.942Z,97.9
2018-09-19T03:10:23.904Z,98.48
2018-09-19T03:11:23.916Z,98.72
2018-09-19T03:12:23.906Z,98.48
2018-09-19T03:13:23.904Z,99.15
2018-09-19T03:14:23.650Z,99.24
2018-09-19T03:15:24.015Z,99.24
2018-09-19T03:16:23.914Z,99.05
2018-09-19T03:17:24.289Z,98.67
2018-09-19T03:18:23.906Z,98.48
2018-09-19T03:19:23.899Z,98.67
2018-09-19T03:20:23.902Z,98.77
2018-09-19T03:21:23.898Z,98.28
2018-09-19T03:22:23.939Z,98.67
2018-09-19T03:23:23.953Z,98.33
2018-09-19T03:24:23.911Z,98.14
2018-09-19T03:25:23.896Z,98
2018-09-19T03:26:23.893Z,98.48
2018-09-19T03:27:23.914Z,98.67
2018-09-19T03:28:23.890Z,99.05
2018-09-19T03:29:23.904Z,99.05
2018-09-19T03:30:23.971Z,98.38
2018-09-19T03:31:23.947Z,98.77
2018-09-19T03:32:23.649Z,98.57
2018-09-19T03:33:23.629Z,98.91
2018-09-19T03:34:23.664Z,98.28
2018-09-19T03:35:24.066Z,98.86
2018-09-19T03:36:23.631Z,99.24
2018-09-19T03:37:23.890Z,99.44
2018-09-19T03:38:23.892Z,99.15
2018-09-19T03:39:23.903Z,99.15
2018-09-19T03:40:23.901Z,99.63
2018-09-19T03:41:23.948Z,99.44
2018-09-19T03:42:23.886Z,99.53
2018-09-19T03:43:23.896Z,99.53
2018-09-19T03:44:23.881Z,99.34
2018-09-19T03:45:23.897Z,99.99
2018-09-19T03:46:23.884Z,99.99
2018-09-19T03:47:23.894Z,99.99
2018-09-19T03:48:23.875Z,99.99
2018-09-19T03:49:23.891Z,99.99
2018-09-19T03:50:23.874Z,99.99
2018-09-19T03:51:23.867Z,99.99
2018-09-19T03:52:23.875Z,99.99
2018-09-19T03:53:23.862Z,99.99
2018-09-19T03:54:23.898Z,99.99
2018-09-19T03:55:23.617Z,99.99
2018-09-19T03:56:23.615Z,99.99
2018-09-19T03:57:23.628Z,99.99
2018-09-19T03:58:24.081Z,99.99
2018-09-19T03:59:23.866Z,99.99
2018-09-19T04:00:23.858Z,99.99
2018-09-19T04:01:23.599Z,99.99
2018-09-19T04:02:23.895Z,99.99
2018-09-19T04:03:23.855Z,99.99
2018-09-19T04:04:23.930Z,99.82
2018-09-19T04:05:23.599Z,99.91
2018-09-19T04:06:23.867Z,99.99
2018-09-19T04:07:23.599Z,99.73
2018-09-19T04:08:23.851Z,99.99
2018-09-19T04:09:23.852Z,99.99
2018-09-19T04:10:23.596Z,99.91
2018-09-19T04:11:23.592Z,99.99
2018-09-19T04:12:23.593Z,99.99
2018-09-19T04:13:23.851Z,99.99
2018-09-19T04:14:23.879Z,99.99
2018-09-19T04:15:23.848Z,99.99
2018-09-19T04:16:23.640Z,99.99
2018-09-19T04:17:23.910Z,99.99
2018-09-19T04:18:23.583Z,99.99
2018-09-19T04:19:24.220Z,99.99
2018-09-19T04:20:23.846Z,99.99
2018-09-19T04:21:23.885Z,99.99
2018-09-19T04:22:23.587Z,99.99
2018-09-19T04:23:23.867Z,99.99
2018-09-19T04:24:23.864Z,99.99
2018-09-19T04:25:23.875Z,99.99
2018-09-19T04:26:23.855Z,99.99
2018-09-19T04:27:23.725Z,99.99
2018-09-19T04:28:23.584Z,99.99
2018-09-19T04:29:23.870Z,99.99
2018-09-19T04:30:23.837Z,99.99
2018-09-19T04:31:23.850Z,99.99
2018-09-19T04:32:23.641Z,99.99
2018-09-19T04:33:23.854Z,99.99
2018-09-19T04:34:23.577Z,99.99
2018-09-19T04:35:23.841Z,99.99
2018-09-19T04:36:23.887Z,99.99
2018-09-19T04:37:23.825Z,99.99
2018-09-19T04:38:23.835Z,99.99
2018-09-19T04:39:23.837Z,99.99
2018-09-19T04:40:23.829Z,99.99
2018-09-19T04:41:23.843Z,99.99
2018-09-19T04:42:23.863Z,99.99
2018-09-19T04:43:23.826Z,99.99
2018-09-19T04:44:23.572Z,99.99
2018-09-19T04:45:24.002Z,99.99
2018-09-19T04:46:23.814Z,99.99
2018-09-19T04:47:23.834Z,99.99
2018-09-19T04:48:23.559Z,99.99
2018-09-19T04:49:23.826Z,99.99
2018-09-19T04:50:23.822Z,99.99
2018-09-19T04:51:24.003Z,99.99
2018-09-19T04:52:23.828Z,99.99
2018-09-19T04:53:23.833Z,99.99
2018-09-19T04:54:23.555Z,99.99
2018-09-19T04:55:23.808Z,99.99
2018-09-19T04:56:23.562Z,99.99
2018-09-19T04:57:23.555Z,99.99
2018-09-19T04:58:23.571Z,99.99
2018-09-19T04:59:23.821Z,99.99
2018-09-19T05:00:23.815Z,99.99
2018-09-19T05:01:23.819Z,99.99
2018-09-19T05:02:23.809Z,99.99
2018-09-19T05:03:23.816Z,99.99
2018-09-19T05:04:23.807Z,99.99
2018-09-19T05:05:23.808Z,99.99
2018-09-19T05:06:23.807Z,99.99
2018-09-19T05:07:23.922Z,99.99
2018-09-19T05:08:23.542Z,99.99
2018-09-19T05:09:23.811Z,99.99
2018-09-19T05:10:23.803Z,99.99
2018-09-19T05:11:23.942Z,99.99
2018-09-19T05:12:23.794Z,99.99
2018-09-19T05:13:23.794Z,99.99
2018-09-19T05:14:23.813Z,99.99
2018-09-19T05:15:23.801Z,99.99
2018-09-19T05:16:23.791Z,99.99
2018-09-19T05:17:23.785Z,99.99
2018-09-19T05:18:23.791Z,99.99
2018-09-19T05:19:23.789Z,99.99
2018-09-19T05:20:23.786Z,99.99
2018-09-19T05:21:23.538Z,99.99
2018-09-19T05:22:23.533Z,99.99
2018-09-19T05:23:23.538Z,99.99
2018-09-19T05:24:23.539Z,99.99
2018-09-19T05:25:23.800Z,99.99
2018-09-19T05:26:23.538Z,99.99
2018-09-19T05:27:23.536Z,99.99
2018-09-19T05:28:23.533Z,99.99
2018-09-19T05:29:23.537Z,99.99
2018-09-19T05:30:23.779Z,99.99
2018-09-19T05:31:23.787Z,99.99
2018-09-19T05:32:23.781Z,99.99
2018-09-19T05:33:23.774Z,99.99
2018-09-19T05:34:23.782Z,99.99
2018-09-19T05:35:23.820Z,99.99
2018-09-19T05:36:23.779Z,99.99
2018-09-19T05:37:23.774Z,99.99
2018-09-19T05:38:23.783Z,99.99
2018-09-19T05:39:23.784Z,99.99
2018-09-19T05:40:23.824Z,99.99
2018-09-19T05:41:23.778Z,99.99
2018-09-19T05:42:23.508Z,99.99
2018-09-19T05:43:23.780Z,99.99
2018-09-19T05:44:23.785Z,99.99
2018-09-19T05:45:24.570Z,99.99
2018-09-19T05:46:23.541Z,99.99
2018-09-19T05:47:23.510Z,99.99
2018-09-19T05:48:23.754Z,99.99
2018-09-19T05:49:23.774Z,99.99
2018-09-19T05:50:23.807Z,99.99
2018-09-19T05:51:23.762Z,99.99
2018-09-19T05:52:23.755Z,99.99
2018-09-19T05:53:23.755Z,99.99
2018-09-19T05:54:23.566Z,99.99
2018-09-19T05:55:23.541Z,99.99
2018-09-19T05:56:23.507Z,99.99
2018-09-19T05:57:23.494Z,99.99
2018-09-19T05:58:23.758Z,99.91
2018-09-19T05:59:23.554Z,99.44
2018-09-19T06:00:23.770Z,99.53
2018-09-19T06:01:23.764Z,99.34
2018-09-19T06:02:23.764Z,99.44
2018-09-19T06:03:23.759Z,99.53
2018-09-19T06:04:23.754Z,98.96
2018-09-19T06:05:23.555Z,98.86
2018-09-19T06:06:23.761Z,98.48
2018-09-19T06:07:23.738Z,98.67
2018-09-19T06:08:23.769Z,99.24
2018-09-19T06:09:23.753Z,99.05
2018-09-19T06:10:23.768Z,99.05
2018-09-19T06:11:23.498Z,98.43
2018-09-19T06:12:23.737Z,98.53
2018-09-19T06:13:23.486Z,98.72
2018-09-19T06:14:23.502Z,98.33
2018-09-19T06:15:23.748Z,98.48
2018-09-19T06:16:23.740Z,98.05
2018-09-19T06:17:23.529Z,98.33
2018-09-19T06:18:23.738Z,98.05
2018-09-19T06:19:23.776Z,97.56
2018-09-19T06:20:23.542Z,98.05
2018-09-19T06:21:23.746Z,97.38
2018-09-19T06:22:23.749Z,97.56
2018-09-19T06:23:23.754Z,97.28
2018-09-19T06:24:23.781Z,96.8
2018-09-19T06:25:23.760Z,96.99
2018-09-19T06:26:23.492Z,96.99
2018-09-19T06:27:23.753Z,96.51
2018-09-19T06:28:23.737Z,95.75
2018-09-19T06:29:23.747Z,96.13
2018-09-19T06:30:23.740Z,95.94
2018-09-19T06:31:23.488Z,95.6
2018-09-19T06:32:23.770Z,95.46
2018-09-19T06:33:23.837Z,95.6
2018-09-19T06:34:23.748Z,95.12
2018-09-19T06:35:23.789Z,94.74
2018-09-19T06:36:23.748Z,94.64
2018-09-19T06:37:23.742Z,94.54
2018-09-19T06:38:23.506Z,94.35
2018-09-19T06:39:23.745Z,93.87
2018-09-19T06:40:23.904Z,92.91
2018-09-19T06:41:23.734Z,92.53
2018-09-19T06:42:23.744Z,92.38
2018-09-19T06:43:23.741Z,91.13
2018-09-19T06:44:23.494Z,88.39
2018-09-19T06:45:23.742Z,87.09
2018-09-19T06:46:23.745Z,85.55
2018-09-19T06:47:23.742Z,85.6
2018-09-19T06:48:23.495Z,83.96
2018-09-19T06:49:23.768Z,83
2018-09-19T06:50:24.916Z,82.17
2018-09-19T06:51:23.745Z,82.14
2018-09-19T06:52:23.906Z,81.7
2018-09-19T06:53:23.535Z,81.02
2018-09-19T06:54:23.754Z,80.73
2018-09-19T06:55:23.775Z,79.71
2018-09-19T06:56:23.798Z,79.71
2018-09-19T06:57:23.498Z,80.1
2018-09-19T06:58:23.757Z,78.94
2018-09-19T06:59:23.513Z,77.78
2018-09-19T07:00:23.509Z,77.92
2018-09-19T07:01:23.773Z,75.93
2018-09-19T07:02:23.820Z,74.97
2018-09-19T07:03:23.777Z,72.69
2018-09-19T07:04:23.791Z,71.58
2018-09-19T07:05:23.786Z,70.06
2018-09-19T07:06:23.774Z,68.36
2018-09-19T07:07:23.795Z,66.94
2018-09-19T07:08:23.793Z,64.47
2018-09-19T07:09:23.830Z,64.21
2018-09-19T07:10:23.571Z,63.82
2018-09-19T07:11:23.559Z,62.88
2018-09-19T07:12:23.559Z,62.4
2018-09-19T07:13:23.796Z,61.63
2018-09-19T07:14:23.853Z,61.36
2018-09-19T07:15:23.816Z,60.69
2018-09-19T07:16:23.816Z,60.4
2018-09-19T07:17:23.564Z,59.46
2018-09-19T07:18:23.835Z,59.75
2018-09-19T07:19:23.569Z,59.63
2018-09-19T07:20:23.588Z,59.17
2018-09-19T07:21:23.593Z,58.69
2018-09-19T07:22:23.600Z,58.11
2018-09-19T07:23:23.850Z,57.26
2018-09-19T07:24:23.869Z,57.17
2018-09-19T07:25:24.040Z,56.39
2018-09-19T07:26:23.615Z,56.49
2018-09-19T07:27:23.872Z,56.49
2018-09-19T07:28:23.898Z,55.74
2018-09-19T07:29:23.899Z,55.44
2018-09-19T07:30:23.626Z,54.99
2018-09-19T07:31:23.631Z,55.08
2018-09-19T07:32:23.901Z,53.73
2018-09-19T07:33:23.898Z,53.83
2018-09-19T07:34:23.923Z,53.24
2018-09-19T07:35:23.910Z,53.75
2018-09-19T07:36:23.922Z,53.66
2018-09-19T07:37:23.938Z,53.66
2018-09-19T07:38:23.932Z,54.11
2018-09-19T07:39:23.679Z,53.53
2018-09-19T07:40:24.107Z,53.08
2018-09-19T07:41:23.684Z,53.56
2018-09-19T07:42:23.963Z,52.78
2018-09-19T07:43:23.960Z,52.69
2018-09-19T07:44:23.715Z,52.03
2018-09-19T07:45:23.966Z,52.13
2018-09-19T07:46:24.020Z,52.42
2018-09-19T07:47:23.997Z,52.23
2018-09-19T07:48:23.999Z,51.93
2018-09-19T07:49:23.740Z,51.45
2018-09-19T07:50:24.014Z,50.96
2018-09-19T07:51:24.936Z,51.26
2018-09-19T07:52:24.006Z,51.09
2018-09-19T07:53:23.754Z,49.95
2018-09-19T07:54:24.048Z,49.17
2018-09-19T07:55:23.822Z,48.41
2018-09-19T07:56:24.132Z,47.93
2018-09-19T07:57:24.050Z,47.47
2018-09-19T07:58:24.073Z,47.08
2018-09-19T07:59:23.805Z,47.56
2018-09-19T08:00:24.122Z,48.54
2018-09-19T08:01:24.334Z,48.25
2018-09-19T08:02:23.815Z,48.34
2018-09-19T08:03:23.825Z,47.27
2018-09-19T08:04:24.106Z,47.27
2018-09-19T08:05:24.101Z,47.17
2018-09-19T08:06:24.145Z,47.39
2018-09-19T08:07:23.852Z,47
2018-09-19T08:08:23.848Z,45.84
2018-09-19T08:09:24.121Z,45.86
2018-09-19T08:10:23.861Z,46.15
2018-09-19T08:11:24.124Z,45.57
2018-09-19T08:12:24.135Z,45.68
2018-09-19T08:13:24.144Z,45.86
2018-09-19T08:14:24.148Z,46.93
2018-09-19T08:15:23.919Z,47.27
2018-09-19T08:16:23.908Z,49.1
2018-09-19T08:17:24.162Z,50.82
2018-09-19T08:18:23.929Z,52.03
2018-09-19T08:19:24.224Z,54.05
2018-09-19T08:20:24.184Z,54.8
2018-09-19T08:21:23.938Z,55.71
2018-09-19T08:22:23.952Z,57.14
2018-09-19T08:23:23.947Z,58.37
2018-09-19T08:24:24.245Z,59.89
2018-09-19T08:25:24.210Z,60.34
2018-09-19T08:26:24.283Z,61.11
2018-09-19T08:27:24.244Z,61.95
2018-09-19T08:28:24.225Z,61.86
2018-09-19T08:29:23.991Z,62.24
2018-09-19T08:30:24.016Z,62.73
2018-09-19T08:31:23.997Z,62.34
2018-09-19T08:32:24.300Z,62.82
2018-09-19T08:33:24.282Z,62.24
2018-09-19T08:34:24.278Z,62.44
2018-09-19T08:35:24.277Z,62.82
2018-09-19T08:36:24.279Z,62.73
2018-09-19T08:37:24.322Z,62.24
2018-09-19T08:38:24.282Z,62.44
2018-09-19T08:39:24.432Z,62.92
2018-09-19T08:40:24.322Z,62.53
2018-09-19T08:41:24.289Z,61.89
2018-09-19T08:42:24.287Z,62.18
2018-09-19T08:43:24.041Z,62.18
2018-09-19T08:44:24.318Z,61.98
2018-09-19T08:45:24.302Z,61.69
2018-09-19T08:46:24.062Z,61.79
2018-09-19T08:47:24.424Z,61.21
2018-09-19T08:48:24.324Z,60.53
2018-09-19T08:49:24.454Z,61.02
2018-09-19T08:50:24.411Z,60.82
2018-09-19T08:51:24.337Z,60.82
2018-09-19T08:52:24.442Z,60.85
2018-09-19T08:53:24.344Z,60.82
2018-09-19T08:54:24.363Z,60.72
2018-09-19T08:55:24.612Z,60.95
2018-09-19T08:56:24.348Z,61.3
2018-09-19T08:57:24.358Z,61.02
2018-09-19T08:58:24.356Z,60.47
2018-09-19T08:59:24.167Z,60.95
2018-09-19T09:00:24.100Z,61.33
2018-09-19T09:01:24.365Z,61.63
2018-09-19T09:02:24.426Z,60.95
2018-09-19T09:03:24.360Z,60.59
2018-09-19T09:04:24.388Z,59.89
2018-09-19T09:05:24.632Z,58.85
2018-09-19T09:06:24.385Z,59.05
2018-09-19T09:07:24.502Z,58.65
2018-09-19T09:08:24.397Z,59.43
2018-09-19T09:09:24.405Z,59.33
2018-09-19T09:10:24.397Z,58.37
2018-09-19T09:11:24.402Z,58.47
2018-09-19T09:12:24.647Z,58.47
2018-09-19T09:13:24.407Z,58.37
2018-09-19T09:14:24.418Z,58.98
2018-09-19T09:15:24.423Z,58.01
2018-09-19T09:16:24.423Z,58.01
2018-09-19T09:17:24.491Z,58.49
2018-09-19T09:18:24.425Z,58.49
2018-09-19T09:19:24.433Z,56.75
2018-09-19T09:20:24.447Z,57.14
2018-09-19T09:21:24.440Z,57.91
2018-09-19T09:22:27.762Z,56.75
2018-09-19T09:23:24.465Z,56.94
2018-09-19T09:24:24.452Z,56.26
2018-09-19T09:25:24.458Z,56.56
2018-09-19T09:26:24.476Z,57.14
2018-09-19T09:27:24.705Z,57.62
2018-09-19T09:28:24.467Z,57.07
2018-09-19T09:29:24.479Z,56.59
2018-09-19T09:30:24.489Z,58.23
2018-09-19T09:31:24.215Z,57.07
2018-09-19T09:32:24.216Z,56.77
2018-09-19T09:33:24.482Z,57.55
2018-09-19T09:34:24.692Z,57.07
2018-09-19T09:35:24.499Z,56.29
2018-09-19T09:36:24.495Z,56.59
2018-09-19T09:37:24.512Z,56
2018-09-19T09:38:24.505Z,55.9
2018-09-19T09:39:24.516Z,56.59
2018-09-19T09:40:24.283Z,56.59
2018-09-19T09:41:24.516Z,55.64
2018-09-19T09:42:24.534Z,55.83
2018-09-19T09:43:24.634Z,55.9
2018-09-19T09:44:24.540Z,56.03
2018-09-19T09:45:24.272Z,56
2018-09-19T09:46:24.565Z,55.22
2018-09-19T09:47:24.542Z,56.59
2018-09-19T09:48:24.538Z,56.61
2018-09-19T09:49:24.545Z,55.54
2018-09-19T09:50:24.346Z,54.19
2018-09-19T09:51:24.375Z,54.58
2018-09-19T09:52:24.308Z,55.06
2018-09-19T09:53:24.797Z,54.96
2018-09-19T09:54:24.594Z,56.61
2018-09-19T09:55:25.176Z,54.96
2018-09-19T09:56:24.314Z,54.38
2018-09-19T09:57:24.581Z,54.48
2018-09-19T09:58:24.332Z,54.86
2018-09-19T09:59:24.593Z,54.86
2018-09-19T10:00:24.588Z,54.11
2018-09-19T10:01:24.604Z,55.08
2018-09-19T10:02:24.602Z,55.47
2018-09-19T10:03:24.357Z,56.45
2018-09-19T10:04:24.618Z,53.83
2018-09-19T10:05:24.773Z,53.53
2018-09-19T10:06:24.735Z,52.95
2018-09-19T10:07:24.771Z,53.44
2018-09-19T10:08:24.376Z,52.08
2018-09-19T10:09:24.657Z,53.05
2018-09-19T10:10:24.647Z,52.66
2018-09-19T10:11:24.380Z,53.44
2018-09-19T10:12:24.660Z,54.02
2018-09-19T10:13:24.446Z,54.99
2018-09-19T10:14:24.679Z,53.44
2018-09-19T10:15:24.661Z,51.11
2018-09-19T10:16:24.663Z,50.74
2018-09-19T10:17:24.667Z,51.14
2018-09-19T10:18:24.482Z,51.23
2018-09-19T10:19:24.682Z,51.14
2018-09-19T10:20:24.691Z,51.53
2018-09-19T10:21:24.423Z,51.14
2018-09-19T10:22:24.682Z,49.99
2018-09-19T10:23:29.399Z,51.16
2018-09-19T10:24:24.464Z,50.84
2018-09-19T10:25:24.691Z,51.26
2018-09-19T10:26:24.450Z,50.87
2018-09-19T10:27:24.705Z,49.9
2018-09-19T10:28:24.452Z,49.02
2018-09-19T10:29:24.722Z,48.83
2018-09-19T10:30:24.726Z,49.71
2018-09-19T10:31:24.720Z,50.19
2018-09-19T10:32:24.743Z,48.44
2018-09-19T10:33:24.732Z,48.27
2018-09-19T10:34:24.751Z,48.05
2018-09-19T10:35:24.925Z,50.87
2018-09-19T10:36:24.753Z,50.12
2018-09-19T10:37:24.753Z,48.95
2018-09-19T10:38:24.501Z,51.09
2018-09-19T10:39:24.532Z,51.09
2018-09-19T10:40:24.771Z,47.88
2018-09-19T10:41:24.782Z,47.59
2018-09-19T10:42:24.534Z,46.62
2018-09-19T10:43:24.798Z,45.75
2018-09-19T10:44:24.813Z,45.94
2018-09-19T10:45:24.533Z,45.94
2018-09-19T10:46:24.856Z,47.01
2018-09-19T10:47:24.811Z,47.49
2018-09-19T10:48:24.807Z,44.68
2018-09-19T10:49:24.614Z,45.36
2018-09-19T10:50:24.821Z,45.55
2018-09-19T10:51:24.593Z,45.45
2018-09-19T10:52:24.828Z,45.45
2018-09-19T10:53:24.833Z,47.69
2018-09-19T10:54:24.868Z,48
2018-09-19T10:55:24.857Z,47.32
2018-09-19T10:56:24.859Z,46.74
2018-09-19T10:57:24.845Z,45.87
2018-09-19T10:58:24.877Z,47.32
2018-09-19T10:59:24.917Z,46.45
2018-09-19T11:00:24.897Z,46.84
2018-09-19T11:01:24.896Z,47.91
2018-09-19T11:02:24.875Z,46.74
2018-09-19T11:03:24.876Z,44.12
2018-09-19T11:04:24.644Z,43.85
2018-09-19T11:05:24.671Z,42.78
2018-09-19T11:06:24.631Z,42.19
2018-09-19T11:07:24.897Z,41.13
2018-09-19T11:08:24.902Z,41.9
2018-09-19T11:09:24.920Z,41.9
2018-09-19T11:10:24.651Z,42
2018-09-19T11:11:24.659Z,42.78
2018-09-19T11:12:24.921Z,44.24
2018-09-19T11:13:24.930Z,44.82
2018-09-19T11:14:24.705Z,46.28
2018-09-19T11:15:24.935Z,45.28
2018-09-19T11:16:24.701Z,45.89
2018-09-19T11:17:24.706Z,45.31
2018-09-19T11:18:25.001Z,46.28
2018-09-19T11:19:24.992Z,45.98
2018-09-19T11:20:24.959Z,45.6
2018-09-19T11:21:24.967Z,45.21
2018-09-19T11:22:25.014Z,44.24
2018-09-19T11:23:24.978Z,44.24
2018-09-19T11:24:24.998Z,44.16
2018-09-19T11:25:25.013Z,45.89
2018-09-19T11:26:24.781Z,43.67
2018-09-19T11:27:24.999Z,43.67
2018-09-19T11:28:25.006Z,43.19
2018-09-19T11:29:24.776Z,43.87
2018-09-19T11:30:25.018Z,45.04
2018-09-19T11:31:25.013Z,45.6
2018-09-19T11:32:25.026Z,45.11
2018-09-19T11:33:24.765Z,45.01
2018-09-19T11:34:24.827Z,44.92
2018-09-19T11:35:25.027Z,45.5
2018-09-19T11:36:24.791Z,45.01
2018-09-19T11:37:25.040Z,45.31
2018-09-19T11:38:25.092Z,45.72
2018-09-19T11:39:24.846Z,44.74
2018-09-19T11:40:25.069Z,45.62
2018-09-19T11:41:25.057Z,44.84
2018-09-19T11:42:25.069Z,44.06
2018-09-19T11:43:25.272Z,44.16
2018-09-19T11:44:25.074Z,47.66
2018-09-19T11:45:24.833Z,45.42
2018-09-19T11:46:25.095Z,47.17
2018-09-19T11:47:25.095Z,46.5
2018-09-19T11:48:25.104Z,42.9
2018-09-19T11:49:25.104Z,45.81
2018-09-19T11:50:25.108Z,45.32
2018-09-19T11:51:25.111Z,43.67
2018-09-19T11:52:25.124Z,44.84
2018-09-19T11:53:25.123Z,44.35
2018-09-19T11:54:25.178Z,45.04
2018-09-19T11:55:25.138Z,44.35
2018-09-19T11:56:25.141Z,44.55
2018-09-19T11:57:25.146Z,45.94
2018-09-19T11:58:25.204Z,44.18
2018-09-19T11:59:25.200Z,42.91
2018-09-19T12:00:25.159Z,41.93
2018-09-19T12:01:25.160Z,42.8
2018-09-19T12:02:25.177Z,44.94
2018-09-19T12:03:24.917Z,43.99
2018-09-19T12:04:26.035Z,44.67
2018-09-19T12:05:25.184Z,43.7
2018-09-19T12:06:24.964Z,45.35
2018-09-19T12:07:25.294Z,45.35
2018-09-19T12:08:25.215Z,46.23
2018-09-19T12:09:25.307Z,41.55
2018-09-19T12:10:25.212Z,41.36
2018-09-19T12:11:25.216Z,41.75
2018-09-19T12:12:24.962Z,42.04
2018-09-19T12:13:25.239Z,41.36
2018-09-19T12:14:26.040Z,43.89
2018-09-19T12:15:25.236Z,44.76
2018-09-19T12:16:25.007Z,43.79
2018-09-19T12:17:25.265Z,44.18
2018-09-19T12:18:25.260Z,41.94
2018-09-19T12:19:25.032Z,44.76
2018-09-19T12:20:25.268Z,44.48
2018-09-19T12:21:25.275Z,43.89
2018-09-19T12:22:25.020Z,42.82
2018-09-19T12:23:25.281Z,42.91
2018-09-19T12:24:25.295Z,43.4
2018-09-19T12:25:25.026Z,42.82
2018-09-19T12:26:25.428Z,43.52
2018-09-19T12:27:25.040Z,42.45
2018-09-19T12:28:25.356Z,42.04
2018-09-19T12:29:25.059Z,42.82
2018-09-19T12:30:25.057Z,43.89
2018-09-19T12:31:25.328Z,43.89
2018-09-19T12:32:25.326Z,43.4
2018-09-19T12:33:25.481Z,42.25
2018-09-19T12:34:25.085Z,42.72
2018-09-19T12:35:25.082Z,43.13
2018-09-19T12:36:25.346Z,43.91
2018-09-19T12:37:25.126Z,42.55
2018-09-19T12:38:25.353Z,42.35
2018-09-19T12:39:25.115Z,42.06
2018-09-19T12:40:25.365Z,42.94
2018-09-19T12:41:25.370Z,42.76
2018-09-19T12:42:25.402Z,44.03
2018-09-19T12:43:25.383Z,43.84
2018-09-19T12:44:25.387Z,43.25
2018-09-19T12:45:25.489Z,43.05
2018-09-19T12:46:25.396Z,43.05
2018-09-19T12:47:25.406Z,42.28
2018-09-19T12:48:25.405Z,41.79
2018-09-19T12:49:25.152Z,41.99
2018-09-19T12:50:25.420Z,43.35
2018-09-19T12:51:25.419Z,42.57
2018-09-19T12:52:25.174Z,43.25
2018-09-19T12:53:25.599Z,42.47
2018-09-19T12:54:25.178Z,41.99
2018-09-19T12:55:25.439Z,42.08